EBCV

Chièvres Air Base Airport

Chièvres, Belgium
TAF EBCV 221213Z 2213/2222 18012KT 6000 BKN012 TEMPO 2213/2215 2000 -SN BKN008 TEMPO 2213/2214 19012G22KT 1500 SN OVC005 BECMG 2214/2216 18008KT 6000 BKN012 BY EBWM
Issued Valid From Valid To
Jan-22 @ 12:13 UTC
(5 hours ago)
Jan-22 @ 13:00 UTC
(4 hours ago)
Jan-22 @ 22:00 UTC
(in 5 hours)
Expired Click to View Jan-22 @ 13:00 to Jan-22 @ 14:00
TAF EBCV 221213Z 2213/2222 18012KT 6000 BKN012
Wind Visibility Clouds
180° at 12 knots 6,003 meters
  • Broken at 1,200' AGL
Expired Click to View Jan-22 @ 13:00 to Jan-22 @ 14:00
TEMPO 2213/2214 19012G22KT 1500 SN OVC005
Wind Visibility Clouds Conditions
190° at 12 knots
 Gusting to 22 knots
1,497 meters
  • Overcast at 500' AGL
  • Snow
Expired Click to View Jan-22 @ 13:00 to Jan-22 @ 15:00
TEMPO 2213/2214 19012G22KT 1500 SN OVC005
Visibility Clouds Conditions
1,996 meters
  • Broken at 800' AGL
  • Light Snow
Becoming Jan-22 @ 14:00 to Jan-22 @ 22:00
BECMG 2214/2216 18008KT 6000 BKN012 BY EBWM
Wind Visibility Clouds
180° at 8 knots 6,003 meters
  • Broken at 1,200' AGL
TAF EBCV 221213Z 2213/2222 18012KT 6000 BKN012 TEMPO 2213/2215 2000 -SN BKN008 TEMPO 2213/2214 19012G22KT 1500 SN OVC005 BECMG 2214/2216 18008KT 6000 BKN012 BY EBWM
Issued Jan-22 @ 12:13 UTC
(5 hours ago)
Valid From Jan-22 @ 13:00 UTC
(4 hours ago)
Valid To Jan-22 @ 22:00 UTC
(in 5 hours)
Jan-22 @ 13:00 - Jan-22 @ 14:00
Wind Visibility
180° at 12 knots 6,003 meters
Clouds
  • Broken at 1,200' AGL
Jan-22 @ 13:00 - Jan-22 @ 14:00
Wind Visibility
190° at 12 knots
 Gusting to 22 knots
1,497 meters
Clouds
  • Overcast at 500' AGL
Conditions
  • Snow
Jan-22 @ 13:00 - Jan-22 @ 15:00
Clouds
  • Broken at 800' AGL
Conditions
  • Light Snow
Becoming Jan-22 @ 14:00 - Jan-22 @ 22:00
Wind Visibility
180° at 8 knots 6,003 meters
Clouds
  • Broken at 1,200' AGL